createdAt,value
2023-05-22T00:00:55.370Z,13.91
2023-05-22T00:05:59.319Z,15.49
2023-05-22T00:11:02.397Z,16.38
2023-05-22T00:16:05.770Z,15.40
2023-05-22T00:21:09.711Z,14.76
2023-05-22T00:26:17.030Z,14.16
2023-05-22T00:31:19.882Z,13.19
2023-05-22T00:36:24.110Z,13.21
2023-05-22T00:41:27.273Z,13.27
2023-05-22T00:46:30.465Z,13.12
2023-05-22T00:51:33.912Z,13.09
2023-05-22T00:56:36.994Z,13.04
2023-05-22T01:01:42.607Z,12.82
2023-05-22T01:06:47.021Z,12.81
2023-05-22T01:12:19.218Z,12.93
2023-05-22T01:17:29.054Z,13.12
2023-05-22T01:22:39.079Z,13.35
2023-05-22T01:28:08.164Z,13.48
2023-05-22T01:33:15.309Z,13.51
2023-05-22T01:38:19.047Z,13.69
2023-05-22T01:43:22.171Z,13.91
2023-05-22T01:48:25.214Z,14.18
2023-05-22T01:53:35.168Z,14.35
2023-05-22T01:58:50.389Z,14.59
2023-05-22T02:03:57.143Z,14.86
2023-05-22T02:09:01.888Z,14.98
2023-05-22T02:14:06.713Z,15.20
2023-05-22T02:19:09.712Z,15.37
2023-05-22T02:24:33.128Z,15.63
2023-05-22T02:29:36.766Z,15.82
2023-05-22T02:34:39.735Z,15.97
2023-05-22T02:39:42.850Z,16.15
2023-05-22T02:44:46.217Z,16.39
2023-05-22T02:49:49.276Z,16.66
2023-05-22T02:54:52.288Z,16.91
2023-05-22T02:59:57.969Z,17.01
2023-05-22T03:05:00.967Z,17.25
2023-05-22T03:10:05.420Z,17.51
2023-05-22T03:15:09.246Z,17.69
2023-05-22T03:20:17.361Z,17.90
2023-05-22T03:25:22.450Z,18.03
2023-05-22T03:30:25.633Z,18.26
2023-05-22T03:35:48.924Z,18.50
2023-05-22T03:40:52.054Z,18.73
2023-05-22T03:45:55.450Z,18.95
2023-05-22T03:50:58.770Z,19.15
2023-05-22T03:56:01.752Z,19.22
2023-05-22T04:01:04.854Z,19.31
2023-05-22T04:06:08.045Z,19.40
2023-05-22T04:11:11.568Z,19.49
2023-05-22T04:16:17.944Z,19.57
2023-05-22T04:21:21.055Z,19.66
2023-05-22T04:26:24.978Z,19.72
2023-05-22T04:31:28.148Z,19.88
2023-05-22T04:36:31.577Z,19.97
2023-05-22T04:41:34.689Z,20.00
2023-05-22T04:46:37.993Z,20.13
2023-05-22T04:51:41.225Z,20.25
2023-05-22T04:56:44.311Z,20.27
2023-05-22T05:01:48.401Z,20.28
2023-05-22T05:06:53.320Z,20.37
2023-05-22T05:11:56.555Z,20.48
2023-05-22T05:17:00.742Z,20.56
2023-05-22T05:22:03.985Z,20.55
2023-05-22T05:27:07.430Z,20.52
2023-05-22T05:32:13.414Z,20.62
2023-05-22T05:37:27.108Z,20.72
2023-05-22T05:42:33.332Z,20.80
2023-05-22T05:47:38.459Z,20.85
2023-05-22T05:52:41.644Z,20.97
2023-05-22T05:57:49.192Z,20.99
2023-05-22T06:03:00.062Z,20.82
2023-05-22T06:08:23.499Z,20.80
2023-05-22T06:13:26.989Z,20.86
2023-05-22T06:18:29.965Z,20.99
2023-05-22T06:23:33.739Z,20.92
2023-05-22T06:28:36.840Z,20.97
2023-05-22T06:33:41.056Z,21.06
2023-05-22T06:38:44.152Z,20.99
2023-05-22T06:44:02.988Z,20.91
2023-05-22T06:49:06.710Z,20.98
2023-05-22T06:54:21.649Z,20.99
2023-05-22T06:59:30.076Z,20.91
2023-05-22T07:04:42.163Z,20.82
2023-05-22T07:09:49.560Z,21.06
2023-05-22T07:14:54.646Z,21.04
2023-05-22T07:19:59.700Z,21.02
2023-05-22T07:25:05.693Z,21.06
2023-05-22T07:30:10.381Z,20.98
2023-05-22T07:35:15.625Z,20.92
2023-05-22T07:40:18.641Z,21.04
2023-05-22T07:45:22.295Z,21.13
2023-05-22T07:50:27.405Z,21.22
2023-05-22T07:55:30.606Z,21.17
2023-05-22T08:00:33.778Z,21.21
2023-05-22T08:05:36.954Z,21.31
2023-05-22T08:15:46.515Z,21.36
2023-05-22T08:20:49.529Z,21.42
2023-05-22T08:25:52.469Z,21.30
2023-05-22T08:30:55.765Z,21.36
2023-05-22T08:35:58.738Z,21.45
2023-05-22T08:41:02.053Z,21.39
2023-05-22T08:46:06.496Z,21.64
2023-05-22T08:51:11.394Z,21.65
2023-05-22T08:56:14.473Z,21.48
2023-05-22T09:01:17.994Z,21.44
2023-05-22T09:06:21.015Z,21.54
2023-05-22T09:11:26.693Z,21.50
2023-05-22T09:16:30.169Z,21.50
2023-05-22T09:21:33.349Z,21.60
2023-05-22T09:26:39.422Z,21.62
2023-05-22T09:31:44.345Z,21.44
2023-05-22T09:36:50.428Z,21.36
2023-05-22T09:41:53.436Z,21.29
2023-05-22T09:46:57.253Z,21.38
2023-05-22T09:52:03.427Z,21.45
2023-05-22T09:57:07.528Z,21.40
2023-05-22T10:02:11.362Z,21.40
2023-05-22T10:07:14.644Z,21.28
2023-05-22T10:12:20.643Z,21.28
2023-05-22T10:17:23.940Z,21.20
2023-05-22T10:22:28.373Z,21.37
2023-05-22T10:27:31.391Z,21.36
2023-05-22T10:32:48.932Z,21.23
2023-05-22T10:37:55.906Z,21.23
2023-05-22T10:43:03.167Z,21.11
2023-05-22T10:48:10.440Z,21.15
2023-05-22T10:53:28.346Z,20.98
2023-05-22T10:58:32.601Z,20.91
2023-05-22T11:04:00.995Z,20.96
2023-05-22T11:09:29.599Z,21.01
2023-05-22T11:14:32.578Z,21.16
2023-05-22T11:19:35.635Z,21.23
2023-05-22T11:24:38.889Z,21.09
2023-05-22T11:29:44.886Z,21.01
2023-05-22T11:34:50.610Z,21.00
2023-05-22T11:39:58.178Z,21.11
2023-05-22T11:45:01.782Z,20.85
2023-05-22T11:50:12.220Z,20.52
2023-05-22T11:55:15.216Z,20.26
2023-05-22T12:00:18.869Z,20.17
2023-05-22T12:05:22.449Z,20.06
2023-05-22T12:10:26.595Z,20.02
2023-05-22T12:15:29.636Z,20.06
2023-05-22T12:20:32.954Z,20.09
2023-05-22T12:25:39.559Z,21.00
2023-05-22T12:30:43.111Z,21.18
2023-05-22T12:35:46.031Z,20.38
2023-05-22T12:40:50.154Z,19.88
2023-05-22T12:45:53.568Z,19.56
2023-05-22T12:50:56.552Z,19.53
2023-05-22T12:55:59.539Z,21.19
2023-05-22T13:01:02.557Z,23.35
2023-05-22T13:06:05.564Z,24.44
2023-05-22T13:11:08.609Z,24.90
2023-05-22T13:16:13.006Z,24.76
2023-05-22T13:21:16.608Z,24.92
2023-05-22T13:26:19.540Z,24.30
2023-05-22T13:31:22.651Z,23.40
2023-05-22T13:36:25.563Z,23.04
2023-05-22T13:41:28.770Z,22.76
2023-05-22T13:46:31.743Z,23.33
2023-05-22T13:51:34.963Z,22.44
2023-05-22T13:56:37.950Z,21.84
2023-05-22T14:01:40.945Z,21.46
2023-05-22T14:06:44.270Z,21.00
2023-05-22T14:11:47.453Z,20.51
2023-05-22T14:16:54.162Z,19.20
2023-05-22T14:21:57.090Z,18.17
2023-05-22T14:27:00.072Z,17.39
2023-05-22T14:32:04.814Z,16.95
2023-05-22T14:37:08.059Z,16.50
2023-05-22T14:42:11.385Z,16.24
2023-05-22T14:47:14.345Z,16.01
2023-05-22T14:52:17.248Z,15.79
2023-05-22T14:57:20.209Z,15.54
2023-05-22T15:02:24.842Z,15.37
2023-05-22T15:07:35.982Z,15.08
2023-05-22T15:12:46.610Z,14.70
2023-05-22T15:17:49.673Z,14.47
2023-05-22T15:22:52.708Z,14.01
2023-05-22T15:27:55.885Z,13.71
2023-05-22T15:33:03.876Z,13.51
2023-05-22T15:38:07.288Z,13.25
2023-05-22T15:43:10.870Z,13.34
2023-05-22T15:48:13.850Z,13.33
2023-05-22T15:53:16.966Z,13.09
2023-05-22T15:58:19.920Z,13.09
2023-05-22T16:03:22.860Z,13.01
2023-05-22T16:08:26.016Z,12.91
2023-05-22T16:13:28.992Z,13.06
2023-05-22T16:18:32.342Z,13.07
2023-05-22T16:23:35.511Z,12.90
2023-05-22T16:28:38.514Z,12.94
2023-05-22T16:33:41.686Z,12.90
2023-05-22T16:38:44.596Z,12.56
2023-05-22T16:43:47.601Z,12.53
2023-05-22T16:48:50.933Z,12.57
2023-05-22T16:53:53.969Z,12.39
2023-05-22T16:58:56.893Z,12.25
2023-05-22T17:03:59.906Z,12.14
2023-05-22T17:09:02.938Z,12.06
2023-05-22T17:14:06.164Z,12.00
2023-05-22T17:19:09.114Z,11.83
2023-05-22T17:24:14.937Z,11.47
2023-05-22T17:29:17.931Z,10.98
2023-05-22T17:34:20.848Z,10.76
2023-05-22T17:39:24.636Z,10.40
2023-05-22T17:44:27.733Z,10.20
2023-05-22T17:49:30.873Z,10.11
2023-05-22T17:54:35.160Z,9.99
2023-05-22T17:59:40.422Z,9.84
2023-05-22T18:04:43.602Z,9.72
2023-05-22T18:09:46.611Z,9.59
2023-05-22T18:14:49.566Z,9.42
2023-05-22T18:19:52.750Z,9.32
2023-05-22T18:24:55.791Z,9.09
2023-05-22T18:29:58.757Z,8.95
2023-05-22T18:35:05.715Z,8.87
2023-05-22T18:40:09.803Z,8.71
2023-05-22T18:45:13.061Z,9.09
2023-05-22T18:50:16.328Z,8.78
2023-05-22T18:55:19.215Z,8.71
2023-05-22T19:00:23.673Z,8.74
2023-05-22T19:05:26.691Z,8.58
2023-05-22T19:10:29.626Z,8.40
2023-05-22T19:15:34.708Z,8.25
2023-05-22T19:20:37.955Z,8.12
2023-05-22T19:25:41.110Z,7.90
2023-05-22T19:30:44.507Z,7.82
2023-05-22T19:35:47.719Z,7.65
2023-05-22T19:40:50.803Z,7.67
2023-05-22T19:45:54.692Z,7.60
2023-05-22T19:50:57.552Z,7.57
2023-05-22T19:56:03.070Z,7.56
2023-05-22T20:01:06.246Z,7.50
2023-05-22T20:06:09.140Z,7.61
2023-05-22T20:11:12.158Z,7.61
2023-05-22T20:16:16.247Z,7.58
2023-05-22T20:21:19.617Z,7.48
2023-05-22T20:26:22.796Z,7.32
2023-05-22T20:31:26.264Z,7.32
2023-05-22T20:36:29.173Z,7.13
2023-05-22T20:41:32.146Z,7.12
2023-05-22T20:46:35.364Z,7.04
2023-05-22T20:51:39.780Z,6.93
2023-05-22T20:56:43.046Z,6.83
2023-05-22T21:01:47.244Z,6.77
2023-05-22T21:06:50.142Z,6.60
2023-05-22T21:11:53.073Z,6.49
2023-05-22T21:16:56.199Z,6.31
2023-05-22T21:21:59.335Z,6.21
2023-05-22T21:27:02.273Z,6.25
2023-05-22T21:32:05.854Z,6.19
2023-05-22T21:37:09.542Z,6.20
2023-05-22T21:42:12.382Z,6.07
2023-05-22T21:47:15.602Z,6.02
2023-05-22T21:52:18.516Z,5.96
2023-05-22T21:57:21.973Z,5.97
2023-05-22T22:02:25.072Z,5.94
2023-05-22T22:07:28.046Z,5.84
2023-05-22T22:12:31.432Z,5.87
2023-05-22T22:17:35.139Z,5.89
2023-05-22T22:22:38.188Z,6.07
2023-05-22T22:27:41.223Z,6.16
2023-05-22T22:32:44.552Z,6.07
2023-05-22T22:37:48.755Z,6.06
2023-05-22T22:42:52.403Z,6.07
2023-05-22T22:47:56.793Z,6.13
2023-05-22T22:53:00.291Z,6.20
2023-05-22T22:58:03.405Z,6.26
2023-05-22T23:03:06.472Z,6.27
2023-05-22T23:08:09.391Z,6.27
2023-05-22T23:13:12.309Z,6.32
2023-05-22T23:18:15.691Z,6.41
2023-05-22T23:23:18.608Z,6.50
2023-05-22T23:28:21.707Z,6.62
2023-05-22T23:33:25.066Z,6.80
2023-05-22T23:38:28.298Z,6.91
2023-05-22T23:43:31.648Z,7.00
2023-05-22T23:48:34.571Z,7.15
2023-05-22T23:53:37.622Z,7.46
2023-05-22T23:58:40.564Z,8.46
